This is the latest recevied weather packets stored in our database for station/object N3MFL. If no packets are shown the sender has not sent any weather packets the latest 1 day(s).
| Time | Temp. | Humidity | Pressure | Rain* | Wind** | Luminosity | Snow |
|---|---|---|---|---|---|---|---|
| 1778095535 | 16.67° C | 81% | 1009.6 hPa | 0 mm | - | 61 W/m² | - |
| 1778094928 | 17.22° C | 77% | 1009.7 hPa | 0 mm | - | 74 W/m² | - |
| 1778094624 | 17.22° C | 76% | 1009.7 hPa | 0 mm | - | 74 W/m² | - |
| 1778092502 | 17.22° C | 76% | 1009.8 hPa | 0 mm | - | 92 W/m² | - |
| 1778092199 | 17.22° C | 75% | 1010 hPa | 0 mm | - | 92 W/m² | - |
| 1778091896 | 17.22° C | 75% | 1010.1 hPa | 0 mm | - | 106 W/m² | - |
| 1778090988 | 17.78° C | 74% | 1010.1 hPa | 0 mm | - | 141 W/m² | - |
| 1778090078 | 18.33° C | 72% | 1010.1 hPa | 0 mm | - | 140 W/m² | - |
| 1778089169 | 18.89° C | 71% | 1010.2 hPa | 0 mm | - | 150 W/m² | - |
| 1778088866 | 18.89° C | 70% | 1010.5 hPa | 0 mm | - | 177 W/m² | - |
| 1778088254 | 18.89° C | 70% | 1010.6 hPa | 0 mm | - | 295 W/m² | - |
| 1778087951 | 18.89° C | 71% | 1010.7 hPa | 0 mm | - | 339 W/m² | - |
| 1778087042 | 18.89° C | 71% | 1010.5 hPa | 0 mm | - | 344 W/m² | - |
| 1778086439 | 18.89° C | 69% | 1010.7 hPa | 0 mm | - | 308 W/m² | - |
| 1778084919 | 18.89° C | 70% | 1011.1 hPa | 0 mm | - | 336 W/m² | - |
| 1778082801 | 18.89° C | 69% | 1011.4 hPa | 0 mm | - | 330 W/m² | - |
| 1778081673 | 19.44° C | 69% | 1011.7 hPa | 0 mm | - | 358 W/m² | - |
| 1778080766 | 18.33° C | 71% | 1011.7 hPa | 0 mm | - | 552 W/m² | - |
| 1778080160 | 18.33° C | 70% | 1011.8 hPa | 0 mm | - | 652 W/m² | - |
| 1778079856 | 18.33° C | 72% | 1012.1 hPa | 0 mm | - | 545 W/m² | - |
| 1778079249 | 18.33° C | 71% | 1011.8 hPa | 0 mm | - | 375 W/m² | - |
| 1778078947 | 17.78° C | 73% | 1011.8 hPa | 0 mm | - | 426 W/m² | - |
| 1778078342 | 17.78° C | 72% | 1011.8 hPa | 0 mm | - | 389 W/m² | - |
| 1778077737 | 18.33° C | 72% | 1011.8 hPa | 0 mm | - | 248 W/m² | - |
| 1778077434 | 18.33° C | 71% | 1011.8 hPa | 0 mm | - | 252 W/m² | - |
* Rain latest hour (hover to see other rain measurements)
** Current wind speed in m/s (hover to see current wind gust speed)